Cawker City, KS

10:42 AM CST on December 29, 2014 (GMT -0600)
Cawker City | Change Station
CLOSE
Current Station
Personal Weather Station
Location: Cawker City, KS
Elevation: 1490 ft
Nearby Weather Stations

Elev 1490 ft 39.51 °N, 98.44 °W | Updated 10 seconds ago

Mostly Cloudy
Mostly Cloudy
24.8 °F
Feels Like 18 °F
N
5.8
Wind Variable Wind from NE
Gusts 7.4 mph

Today
High -- | Low -- °F
--% Chance of Precip.
Yesterday
High -- | Low -- °F
Precip. -- in
7:53 AM 5:18 PM
First Quarter, 60% visible
Pressure 30.32 in
Visibility 2.5 miles
Clouds Overcast 500 ft
Windchill 18 °F
Dew Point 20 °F
Humidity 81%
Rainfall 0.00 in
Snow Depth Not available.
UV 1 out of 12
Pollen .10 out of 12
Air Quality Not available.
Flu Activity Not available.
SPECI KCNK 291637Z AUTO 04008KT 2 1/2SM BR OVC005 M04/M04 A3032 RMK AO2 T10391044

More Conditions Fewer Conditions

Pressure 30.32 in
Visibility 2.5 miles
Clouds Overcast 500 ft
Windchill 18 °F
Dew Point 20 °F
Humidity 81%
Rainfall 0.00 in
Snow Depth Not available.
UV 1 out of 12
Pollen .10 out of 12
Air Quality Not available.
Flu Activity Not available.
SPECI KCNK 291637Z AUTO 04008KT 2 1/2SM BR OVC005 M04/M04 A3032 RMK AO2 T10391044

More Conditions Fewer Conditions

10-Day Weather Forecast

Almanac

Astronomy

Dec. 29, 2014 Rise Set
Actual Time
Civil Twilight
Nautical Twilight
Astronomical Twilight
Moon
Length of Visible Light
Length of Day
Tomorrow will be .
, % of the Moon is Illuminated

Today's Extremes

State Highs State Lows

Community

WunderPhotos

Upload Photos

1,781,648 photos uploaded!

WunderBlogs® & News

Nearby

Air Quality

  Air Quality AQ Index Pollutant
Not available.

Snow Depth

Station Depth Elevation

Earthquake Activity

City Distance Mag. Time & Date
Minimum magnitude displayed is 2.5.

Coastal Water Temperatures

Place Temperature

Nearby Weather Stations